East Jefferson, New York
Current Conditions -  °F | °C
As of 1:15 AM on Sunday 26 Oct 2014 (Local Time) from KNY0 Reporting Station
Overcast Overcast  
Wind Chill: 44°   Ceiling: 6000
Heat Index: 48°   Visibility: 10mi
Dew Point: 44°   Wind: 8mph
Humidity: 86%   Direction: 270°W
Pressure: 29.52"   Gusts: NA
Location:  42.5008°N, 74.6014°W
Report Text: KNY0 260515Z AUTO 27007KT 10SM SCT042 BKN060 OVC070 09/07 A2952 RMK AO2 T00880065
Loading
Personal Weather Stations






























Interactive Weather Map
Tropical Storm Tracking
New forecast layout! Learn more

10-Day Weather Forecast

Advertisements
Track Severe Weather on mobile